sensor_id;sensor_type;location;lat;lon;timestamp;pressure;altitude;pressure_sealevel;temperature;humidity
8451;BME280;4262;50.980;13.892;2023-01-25T04:32:46;50867.88;;;-142.97;64.66
8451;BME280;4262;50.980;13.892;2023-01-25T04:35:32;50844.47;;;-142.97;63.13
8451;BME280;4262;50.980;13.892;2023-01-25T04:38:00;50844.47;;;-142.97;62.72
8451;BME280;4262;50.980;13.892;2023-01-25T04:40:34;50838.63;;;-142.97;62.28
8451;BME280;4262;50.980;13.892;2023-01-25T04:43:02;50883.47;;;-142.97;62.29
8451;BME280;4262;50.980;13.892;2023-01-25T04:45:30;50860.09;;;-142.97;63.29
8451;BME280;4262;50.980;13.892;2023-01-25T04:48:01;50838.63;;;-142.97;62.71
8451;BME280;4262;50.980;13.892;2023-01-25T04:50:29;50830.84;;;-142.97;62.59
8451;BME280;4262;50.980;13.892;2023-01-25T04:52:58;50844.47;;;-142.97;63.26
8451;BME280;4262;50.980;13.892;2023-01-25T04:55:27;50836.69;;;-142.97;63.27
8451;BME280;4262;50.980;13.892;2023-01-25T04:57:56;50834.72;;;-142.97;63.71
8451;BME280;4262;50.980;13.892;2023-01-25T05:00:23;50838.63;;;-142.97;63.63
8451;BME280;4262;50.980;13.892;2023-01-25T05:02:49;50830.84;;;-142.97;63.92
8451;BME280;4262;50.980;13.892;2023-01-25T05:05:18;50856.19;;;-142.97;63.78
8451;BME280;4262;50.980;13.892;2023-01-25T05:07:47;50844.47;;;-142.97;63.75
8451;BME280;4262;50.980;13.892;2023-01-25T05:10:14;50801.59;;;-142.97;63.77
8451;BME280;4262;50.980;13.892;2023-01-25T05:12:58;50823.03;;;-142.97;64.27
8451;BME280;4262;50.980;13.892;2023-01-25T05:15:27;50834.72;;;-142.97;64.05
8451;BME280;4262;50.980;13.892;2023-01-25T05:17:55;50848.38;;;-142.97;63.80
8451;BME280;4262;50.980;13.892;2023-01-25T05:20:23;50860.09;;;-142.97;63.73
8451;BME280;4262;50.980;13.892;2023-01-25T05:22:52;50826.94;;;-142.97;64.36
8451;BME280;4262;50.980;13.892;2023-01-25T05:25:18;50793.78;;;-142.97;64.45
8451;BME280;4262;50.980;13.892;2023-01-25T05:28:03;50844.47;;;-142.97;64.98
8451;BME280;4262;50.980;13.892;2023-01-25T05:30:53;50848.38;;;-142.97;64.82
8451;BME280;4262;50.980;13.892;2023-01-25T05:33:24;50813.28;;;-142.97;64.93
8451;BME280;4262;50.980;13.892;2023-01-25T05:35:52;50824.97;;;-142.97;65.08
8451;BME280;4262;50.980;13.892;2023-01-25T05:38:20;50787.94;;;-142.97;65.66
8451;BME280;4262;50.980;13.892;2023-01-25T05:40:47;50838.63;;;-142.97;64.99
8451;BME280;4262;50.980;13.892;2023-01-25T05:43:14;50848.38;;;-142.97;64.96
8451;BME280;4262;50.980;13.892;2023-01-25T05:45:41;50830.84;;;-142.97;65.50
8451;BME280;4262;50.980;13.892;2023-01-25T05:48:09;50809.38;;;-142.97;66.40
8451;BME280;4262;50.980;13.892;2023-01-25T05:50:36;50797.69;;;-142.97;65.90
8451;BME280;4262;50.980;13.892;2023-01-25T05:53:09;50844.47;;;-142.97;65.23
8451;BME280;4262;50.980;13.892;2023-01-25T05:55:38;50817.19;;;-142.97;65.47
8451;BME280;4262;50.980;13.892;2023-01-25T05:58:08;50832.78;;;-142.97;64.56
8451;BME280;4262;50.980;13.892;2023-01-25T06:00:37;50838.63;;;-142.97;63.63
8451;BME280;4262;50.980;13.892;2023-01-25T06:03:04;50852.28;;;-142.97;63.68
8451;BME280;4262;50.980;13.892;2023-01-25T06:05:34;50834.72;;;-142.97;63.31
8451;BME280;4262;50.980;13.892;2023-01-25T06:08:00;50824.97;;;-142.97;62.71
8451;BME280;4262;50.980;13.892;2023-01-25T06:10:43;50856.19;;;-142.97;63.16
8451;BME280;4262;50.980;13.892;2023-01-25T06:13:10;50836.69;;;-142.97;62.54
8451;BME280;4262;50.980;13.892;2023-01-25T06:15:37;50791.84;;;-142.97;63.11
8451;BME280;4262;50.980;13.892;2023-01-25T06:18:32;50830.84;;;-142.97;62.74
8451;BME280;4262;50.980;13.892;2023-01-25T06:21:22;50838.63;;;-142.97;62.77
8451;BME280;4262;50.980;13.892;2023-01-25T06:23:50;50846.44;;;-142.97;62.50
8451;BME280;4262;50.980;13.892;2023-01-25T06:26:18;50832.78;;;-142.97;62.79
8451;BME280;4262;50.980;13.892;2023-01-25T06:28:45;50910.78;;;-142.97;62.02
8451;BME280;4262;50.980;13.892;2023-01-25T06:31:14;50832.78;;;-142.97;61.33
8451;BME280;4262;50.980;13.892;2023-01-25T06:33:42;50803.53;;;-142.97;61.59
8451;BME280;4262;50.980;13.892;2023-01-25T06:36:11;50826.94;;;-142.97;62.55
8451;BME280;4262;50.980;13.892;2023-01-25T06:38:38;50840.59;;;-142.97;62.43
8451;BME280;4262;50.980;13.892;2023-01-25T06:41:06;50813.28;;;-142.97;62.86
8451;BME280;4262;50.980;13.892;2023-01-25T06:43:35;50842.53;;;-142.97;62.11
8451;BME280;4262;50.980;13.892;2023-01-25T06:46:03;50817.19;;;-142.97;62.72
8451;BME280;4262;50.980;13.892;2023-01-25T06:48:31;50836.69;;;-142.97;62.81
8451;BME280;4262;50.980;13.892;2023-01-25T06:51:00;50858.13;;;-142.97;63.42
8451;BME280;4262;50.980;13.892;2023-01-25T06:53:30;50824.97;;;-142.97;62.38
8451;BME280;4262;50.980;13.892;2023-01-25T06:55:58;50799.63;;;-142.97;62.19
8451;BME280;4262;50.980;13.892;2023-01-25T06:58:25;50823.03;;;-142.97;62.09
8451;BME280;4262;50.980;13.892;2023-01-25T07:00:59;50817.19;;;-142.97;62.20
8451;BME280;4262;50.980;13.892;2023-01-25T07:03:26;50819.13;;;-142.97;62.26
8451;BME280;4262;50.980;13.892;2023-01-25T07:05:56;50813.28;;;-142.97;62.11
8451;BME280;4262;50.980;13.892;2023-01-25T07:08:23;50795.75;;;-142.97;61.68
8451;BME280;4262;50.980;13.892;2023-01-25T07:10:54;50871.78;;;-142.97;62.43
8451;BME280;4262;50.980;13.892;2023-01-25T07:13:21;50823.03;;;-142.97;62.65
8451;BME280;4262;50.980;13.892;2023-01-25T07:15:54;50846.44;;;-142.97;61.68
8451;BME280;4262;50.980;13.892;2023-01-25T07:18:22;50862.03;;;-142.97;61.91
8451;BME280;4262;50.980;13.892;2023-01-25T07:20:49;50858.13;;;-142.97;61.78
8451;BME280;4262;50.980;13.892;2023-01-25T07:23:18;50856.19;;;-142.97;61.87
8451;BME280;4262;50.980;13.892;2023-01-25T07:25:46;50828.88;;;-142.97;62.81
8451;BME280;4262;50.980;13.892;2023-01-25T07:28:14;50832.78;;;-142.97;63.59
8451;BME280;4262;50.980;13.892;2023-01-25T07:30:41;50817.19;;;-142.97;63.44
8451;BME280;4262;50.980;13.892;2023-01-25T07:33:10;50819.13;;;-142.97;63.64
8451;BME280;4262;50.980;13.892;2023-01-25T07:35:37;50813.28;;;-142.97;63.09
8451;BME280;4262;50.980;13.892;2023-01-25T07:38:03;50850.34;;;-142.97;63.40
8451;BME280;4262;50.980;13.892;2023-01-25T07:40:30;50824.97;;;-142.97;63.30
8451;BME280;4262;50.980;13.892;2023-01-25T07:42:57;50819.13;;;-142.97;63.24
8451;BME280;4262;50.980;13.892;2023-01-25T07:45:27;50821.09;;;-142.97;62.26
8451;BME280;4262;50.980;13.892;2023-01-25T07:47:57;50821.09;;;-142.97;63.01
8451;BME280;4262;50.980;13.892;2023-01-25T07:50:26;50817.19;;;-142.97;62.70
8451;BME280;4262;50.980;13.892;2023-01-25T07:52:54;50836.69;;;-142.97;62.25
8451;BME280;4262;50.980;13.892;2023-01-25T07:55:21;50826.94;;;-142.97;63.37
8451;BME280;4262;50.980;13.892;2023-01-25T07:57:53;50815.22;;;-142.97;63.52
8451;BME280;4262;50.980;13.892;2023-01-25T08:00:20;50863.97;;;-142.97;63.02
8451;BME280;4262;50.980;13.892;2023-01-25T08:02:48;50811.34;;;-142.97;62.33
8451;BME280;4262;50.980;13.892;2023-01-25T08:05:15;50830.84;;;-142.97;62.31
8451;BME280;4262;50.980;13.892;2023-01-25T08:07:46;50821.09;;;-142.97;62.46
8451;BME280;4262;50.980;13.892;2023-01-25T08:10:13;50811.34;;;-142.97;63.38
8451;BME280;4262;50.980;13.892;2023-01-25T08:12:43;50823.03;;;-142.97;62.79
8451;BME280;4262;50.980;13.892;2023-01-25T08:15:10;50797.69;;;-142.97;62.53
8451;BME280;4262;50.980;13.892;2023-01-25T08:17:38;50824.97;;;-142.97;62.43
8451;BME280;4262;50.980;13.892;2023-01-25T08:20:06;50844.47;;;-142.97;62.49
8451;BME280;4262;50.980;13.892;2023-01-25T08:22:33;50865.94;;;-142.97;62.64
8451;BME280;4262;50.980;13.892;2023-01-25T08:25:01;50834.72;;;-142.97;62.02
8451;BME280;4262;50.980;13.892;2023-01-25T08:27:28;50840.59;;;-142.97;61.81
8451;BME280;4262;50.980;13.892;2023-01-25T08:29:55;50840.59;;;-142.97;61.99
8451;BME280;4262;50.980;13.892;2023-01-25T08:32:21;50821.09;;;-142.97;61.06
8451;BME280;4262;50.980;13.892;2023-01-25T08:34:47;50823.03;;;-142.97;61.48
8451;BME280;4262;50.980;13.892;2023-01-25T08:37:14;50850.34;;;-142.97;61.03
8451;BME280;4262;50.980;13.892;2023-01-25T08:39:41;50844.47;;;-142.97;61.17
8451;BME280;4262;50.980;13.892;2023-01-25T08:42:09;50844.47;;;-142.97;60.55
8451;BME280;4262;50.980;13.892;2023-01-25T08:44:35;50838.63;;;-142.97;61.80
8451;BME280;4262;50.980;13.892;2023-01-25T08:47:02;50840.59;;;-142.97;60.95
8451;BME280;4262;50.980;13.892;2023-01-25T08:49:29;50821.09;;;-142.97;61.07
8451;BME280;4262;50.980;13.892;2023-01-25T08:52:00;50824.97;;;-142.97;61.53
8451;BME280;4262;50.980;13.892;2023-01-25T08:54:26;50836.69;;;-142.97;61.71
8451;BME280;4262;50.980;13.892;2023-01-25T08:56:53;50823.03;;;-142.97;62.74
8451;BME280;4262;50.980;13.892;2023-01-25T08:59:21;50844.47;;;-142.97;62.10
8451;BME280;4262;50.980;13.892;2023-01-25T09:01:48;50848.38;;;-142.97;61.71
8451;BME280;4262;50.980;13.892;2023-01-25T09:04:15;50807.44;;;-142.97;61.85
8451;BME280;4262;50.980;13.892;2023-01-25T09:06:41;50828.88;;;-142.97;63.35
8451;BME280;4262;50.980;13.892;2023-01-25T09:09:09;50824.97;;;-142.97;63.39
8451;BME280;4262;50.980;13.892;2023-01-25T09:11:36;50826.94;;;-142.97;62.98
8451;BME280;4262;50.980;13.892;2023-01-25T09:14:04;50823.03;;;-142.97;62.14
8451;BME280;4262;50.980;13.892;2023-01-25T09:16:32;50819.13;;;-142.97;62.21
8451;BME280;4262;50.980;13.892;2023-01-25T09:19:01;50807.44;;;-142.97;62.21
8451;BME280;4262;50.980;13.892;2023-01-25T09:21:28;50828.88;;;-142.97;62.10
8451;BME280;4262;50.980;13.892;2023-01-25T09:23:57;50828.88;;;-142.97;62.40
8451;BME280;4262;50.980;13.892;2023-01-25T09:26:24;50823.03;;;-142.97;61.44
8451;BME280;4262;50.980;13.892;2023-01-25T09:28:52;50819.13;;;-142.97;61.98
8451;BME280;4262;50.980;13.892;2023-01-25T09:31:20;50838.63;;;-142.97;61.46
8451;BME280;4262;50.980;13.892;2023-01-25T09:34:08;50852.28;;;-142.97;62.39
8451;BME280;4262;50.980;13.892;2023-01-25T09:36:35;50819.13;;;-142.97;62.40
8451;BME280;4262;50.980;13.892;2023-01-25T09:39:02;50817.19;;;-142.97;62.41
8451;BME280;4262;50.980;13.892;2023-01-25T09:41:42;50807.44;;;-142.97;62.00
8451;BME280;4262;50.980;13.892;2023-01-25T09:44:26;50850.34;;;-142.97;62.14
8451;BME280;4262;50.980;13.892;2023-01-25T09:46:57;50815.22;;;-142.97;61.85
8451;BME280;4262;50.980;13.892;2023-01-25T09:49:33;50832.78;;;-142.97;61.73
8451;BME280;4262;50.980;13.892;2023-01-25T09:52:27;50850.34;;;-142.97;61.99
8451;BME280;4262;50.980;13.892;2023-01-25T09:54:58;50801.59;;;-142.97;62.25
8451;BME280;4262;50.980;13.892;2023-01-25T09:57:27;50854.22;;;-142.97;61.55
8451;BME280;4262;50.980;13.892;2023-01-25T09:59:55;50815.22;;;-142.97;61.47
8451;BME280;4262;50.980;13.892;2023-01-25T10:02:33;50815.22;;;-142.97;61.27
8451;BME280;4262;50.980;13.892;2023-01-25T10:05:06;50840.59;;;-142.97;61.69
8451;BME280;4262;50.980;13.892;2023-01-25T10:07:47;50828.88;;;-142.97;62.03
8451;BME280;4262;50.980;13.892;2023-01-25T10:10:17;50826.94;;;-142.97;61.87
8451;BME280;4262;50.980;13.892;2023-01-25T10:12:45;50824.97;;;-142.97;61.46
8451;BME280;4262;50.980;13.892;2023-01-25T10:15:17;50860.09;;;-142.97;61.58
8451;BME280;4262;50.980;13.892;2023-01-25T10:17:44;50840.59;;;-142.97;60.61
8451;BME280;4262;50.980;13.892;2023-01-25T10:20:20;50826.94;;;-142.97;61.00
8451;BME280;4262;50.980;13.892;2023-01-25T10:22:55;50823.03;;;-142.97;61.33
8451;BME280;4262;50.980;13.892;2023-01-25T10:25:32;50832.78;;;-142.97;61.10
8451;BME280;4262;50.980;13.892;2023-01-25T10:28:25;50805.50;;;-142.97;61.34
8451;BME280;4262;50.980;13.892;2023-01-25T10:30:58;50836.69;;;-142.97;60.90
8451;BME280;4262;50.980;13.892;2023-01-25T10:33:27;50809.38;;;-142.97;60.13
8451;BME280;4262;50.980;13.892;2023-01-25T10:35:57;50842.53;;;-142.97;59.14
8451;BME280;4262;50.980;13.892;2023-01-25T10:38:30;50821.09;;;-142.97;60.17
8451;BME280;4262;50.980;13.892;2023-01-25T10:41:01;50805.50;;;-142.97;60.23
8451;BME280;4262;50.980;13.892;2023-01-25T10:43:30;50826.94;;;-142.97;60.50
8451;BME280;4262;50.980;13.892;2023-01-25T10:45:56;50828.88;;;-142.97;59.94
8451;BME280;4262;50.980;13.892;2023-01-25T10:48:27;50815.22;;;-142.97;60.22
8451;BME280;4262;50.980;13.892;2023-01-25T10:50:57;50842.53;;;-142.97;59.92
8451;BME280;4262;50.980;13.892;2023-01-25T10:53:28;50826.94;;;-142.97;59.68
8451;BME280;4262;50.980;13.892;2023-01-25T10:56:20;50817.19;;;-142.97;59.45
8451;BME280;4262;50.980;13.892;2023-01-25T10:58:48;50787.94;;;-142.97;59.86
8451;BME280;4262;50.980;13.892;2023-01-25T11:01:28;50842.53;;;-142.97;59.29
8451;BME280;4262;50.980;13.892;2023-01-25T11:03:56;50834.72;;;-142.97;59.44
8451;BME280;4262;50.980;13.892;2023-01-25T11:06:32;50826.94;;;-142.97;58.68
8451;BME280;4262;50.980;13.892;2023-01-25T11:09:00;50826.94;;;-142.97;58.67
8451;BME280;4262;50.980;13.892;2023-01-25T11:11:33;50823.03;;;-142.97;59.14
8451;BME280;4262;50.980;13.892;2023-01-25T11:14:02;50821.09;;;-142.97;59.11
8451;BME280;4262;50.980;13.892;2023-01-25T11:16:44;50809.38;;;-142.97;58.55
8451;BME280;4262;50.980;13.892;2023-01-25T11:19:24;50828.88;;;-142.97;58.88
8451;BME280;4262;50.980;13.892;2023-01-25T11:21:55;50815.22;;;-142.97;59.09
8451;BME280;4262;50.980;13.892;2023-01-25T11:24:25;50797.69;;;-142.97;58.97
8451;BME280;4262;50.980;13.892;2023-01-25T11:27:11;50811.34;;;-142.97;57.98
8451;BME280;4262;50.980;13.892;2023-01-25T11:29:39;50809.38;;;-142.97;58.65
8451;BME280;4262;50.980;13.892;2023-01-25T11:32:15;50805.50;;;-142.97;57.31
8451;BME280;4262;50.980;13.892;2023-01-25T11:34:46;50834.72;;;-142.97;57.27
8451;BME280;4262;50.980;13.892;2023-01-25T11:37:44;50844.47;;;-142.97;57.88
8451;BME280;4262;50.980;13.892;2023-01-25T11:40:18;50883.47;;;-142.97;57.90
8451;BME280;4262;50.980;13.892;2023-01-25T11:42:55;50811.34;;;-142.97;58.32
8451;BME280;4262;50.980;13.892;2023-01-25T11:45:43;50828.88;;;-142.97;57.48
8451;BME280;4262;50.980;13.892;2023-01-25T11:48:32;50846.44;;;-142.97;57.65
8451;BME280;4262;50.980;13.892;2023-01-25T11:51:12;50813.28;;;-142.97;57.52
8451;BME280;4262;50.980;13.892;2023-01-25T11:54:06;50813.28;;;-142.97;56.83
8451;BME280;4262;50.980;13.892;2023-01-25T11:56:48;50821.09;;;-142.97;57.13
8451;BME280;4262;50.980;13.892;2023-01-25T11:59:30;50850.34;;;-142.97;57.31
8451;BME280;4262;50.980;13.892;2023-01-25T12:02:13;50824.97;;;-142.97;57.84
8451;BME280;4262;50.980;13.892;2023-01-25T12:04:51;50797.69;;;-142.97;58.23
8451;BME280;4262;50.980;13.892;2023-01-25T12:07:33;50805.50;;;-142.97;59.43
8451;BME280;4262;50.980;13.892;2023-01-25T12:10:21;50838.63;;;-142.97;60.87
8451;BME280;4262;50.980;13.892;2023-01-25T12:12:55;50846.44;;;-142.97;60.65
8451;BME280;4262;50.980;13.892;2023-01-25T12:15:44;50795.75;;;-142.97;60.01
8451;BME280;4262;50.980;13.892;2023-01-25T12:18:32;50823.03;;;-142.97;59.75
8451;BME280;4262;50.980;13.892;2023-01-25T12:21:05;50801.59;;;-142.97;59.07
8451;BME280;4262;50.980;13.892;2023-01-25T12:23:52;50823.03;;;-142.97;58.23
8451;BME280;4262;50.980;13.892;2023-01-25T12:26:27;50821.09;;;-142.97;58.97
8451;BME280;4262;50.980;13.892;2023-01-25T12:29:02;50824.97;;;-142.97;58.66
8451;BME280;4262;50.980;13.892;2023-01-25T12:31:38;50824.97;;;-142.97;59.72
8451;BME280;4262;50.980;13.892;2023-01-25T12:34:13;50826.94;;;-142.97;60.11
8451;BME280;4262;50.980;13.892;2023-01-25T12:36:42;50836.69;;;-142.97;59.83
8451;BME280;4262;50.980;13.892;2023-01-25T12:39:12;50836.69;;;-142.97;61.21
8451;BME280;4262;50.980;13.892;2023-01-25T12:41:44;50836.69;;;-142.97;60.79
8451;BME280;4262;50.980;13.892;2023-01-25T12:44:16;50813.28;;;-142.97;60.98
8451;BME280;4262;50.980;13.892;2023-01-25T12:46:51;50809.38;;;-142.97;60.65
8451;BME280;4262;50.980;13.892;2023-01-25T12:49:27;50817.19;;;-142.97;60.47
8451;BME280;4262;50.980;13.892;2023-01-25T12:52:00;50823.03;;;-142.97;61.32
8451;BME280;4262;50.980;13.892;2023-01-25T12:54:32;50809.38;;;-142.97;59.67
8451;BME280;4262;50.980;13.892;2023-01-25T12:57:10;50823.03;;;-142.97;59.37
8451;BME280;4262;50.980;13.892;2023-01-25T12:59:49;50848.38;;;-142.97;59.99
8451;BME280;4262;50.980;13.892;2023-01-25T13:02:33;50862.03;;;-142.97;61.23
8451;BME280;4262;50.980;13.892;2023-01-25T13:05:13;50824.97;;;-142.97;61.29
8451;BME280;4262;50.980;13.892;2023-01-25T13:08:10;50819.13;;;-142.97;60.73
8451;BME280;4262;50.980;13.892;2023-01-25T13:10:43;50838.63;;;-142.97;60.21
8451;BME280;4262;50.980;13.892;2023-01-25T13:13:22;50832.78;;;-142.97;59.82
8451;BME280;4262;50.980;13.892;2023-01-25T13:15:50;50854.22;;;-142.97;59.17
8451;BME280;4262;50.980;13.892;2023-01-25T13:18:35;50819.13;;;-142.97;59.40
8451;BME280;4262;50.980;13.892;2023-01-25T13:21:03;50813.28;;;-142.97;59.88
8451;BME280;4262;50.980;13.892;2023-01-25T13:23:34;50830.84;;;-142.97;60.23
8451;BME280;4262;50.980;13.892;2023-01-25T13:32:53;50826.94;;;-142.97;58.15
8451;BME280;4262;50.980;13.892;2023-01-25T13:35:31;50846.44;;;-142.97;59.44
8451;BME280;4262;50.980;13.892;2023-01-25T13:38:05;50797.69;;;-142.97;59.19
8451;BME280;4262;50.980;13.892;2023-01-25T13:41:04;50832.78;;;-142.97;58.94
8451;BME280;4262;50.980;13.892;2023-01-25T13:43:37;50785.97;;;-142.97;59.46
8451;BME280;4262;50.980;13.892;2023-01-25T13:46:05;50824.97;;;-142.97;60.55
8451;BME280;4262;50.980;13.892;2023-01-25T13:48:42;50809.38;;;-142.97;59.34
8451;BME280;4262;50.980;13.892;2023-01-25T13:51:11;50817.19;;;-142.97;58.97
8451;BME280;4262;50.980;13.892;2023-01-25T13:53:41;50815.22;;;-142.97;59.61
8451;BME280;4262;50.980;13.892;2023-01-25T13:56:29;50840.59;;;-142.97;59.14
8451;BME280;4262;50.980;13.892;2023-01-25T13:58:56;50832.78;;;-142.97;59.75
8451;BME280;4262;50.980;13.892;2023-01-25T14:01:25;50852.28;;;-142.97;59.16
8451;BME280;4262;50.980;13.892;2023-01-25T14:03:56;50842.53;;;-142.97;58.96
8451;BME280;4262;50.980;13.892;2023-01-25T14:06:28;50807.44;;;-142.97;59.78
8451;BME280;4262;50.980;13.892;2023-01-25T14:08:58;50840.59;;;-142.97;59.41
8451;BME280;4262;50.980;13.892;2023-01-25T14:11:30;50795.75;;;-142.97;58.74
8451;BME280;4262;50.980;13.892;2023-01-25T14:14:01;50840.59;;;-142.97;58.74
8451;BME280;4262;50.980;13.892;2023-01-25T14:16:30;50832.78;;;-142.97;59.52
8451;BME280;4262;50.980;13.892;2023-01-25T14:19:21;50807.44;;;-142.97;58.74
8451;BME280;4262;50.980;13.892;2023-01-25T14:22:09;50805.50;;;-142.97;58.98
8451;BME280;4262;50.980;13.892;2023-01-25T14:24:36;50844.47;;;-142.97;58.59
8451;BME280;4262;50.980;13.892;2023-01-25T14:27:03;50848.38;;;-142.97;59.36
8451;BME280;4262;50.980;13.892;2023-01-25T14:29:31;50821.09;;;-142.97;59.63
8451;BME280;4262;50.980;13.892;2023-01-25T14:31:59;50807.44;;;-142.97;60.18
8451;BME280;4262;50.980;13.892;2023-01-25T14:34:27;50799.63;;;-142.97;59.40
8451;BME280;4262;50.980;13.892;2023-01-25T14:37:09;50844.47;;;-142.97;59.21
8451;BME280;4262;50.980;13.892;2023-01-25T14:39:40;50832.78;;;-142.97;59.04
8451;BME280;4262;50.980;13.892;2023-01-25T14:42:07;50844.47;;;-142.97;59.52
8451;BME280;4262;50.980;13.892;2023-01-25T14:44:34;50848.38;;;-142.97;59.33
8451;BME280;4262;50.980;13.892;2023-01-25T14:47:21;50848.38;;;-142.97;59.30
8451;BME280;4262;50.980;13.892;2023-01-25T14:49:51;50821.09;;;-142.97;58.86
8451;BME280;4262;50.980;13.892;2023-01-25T14:52:20;50842.53;;;-142.97;58.22
8451;BME280;4262;50.980;13.892;2023-01-25T14:54:53;50862.03;;;-142.97;58.63
8451;BME280;4262;50.980;13.892;2023-01-25T14:57:30;50821.09;;;-142.97;59.99
8451;BME280;4262;50.980;13.892;2023-01-25T14:59:59;50832.78;;;-142.97;60.54
8451;BME280;4262;50.980;13.892;2023-01-25T15:02:33;50821.09;;;-142.97;61.15
8451;BME280;4262;50.980;13.892;2023-01-25T15:05:16;50805.50;;;-142.97;60.70
8451;BME280;4262;50.980;13.892;2023-01-25T15:07:45;50828.88;;;-142.97;60.96
8451;BME280;4262;50.980;13.892;2023-01-25T15:10:19;50852.28;;;-142.97;61.43
8451;BME280;4262;50.980;13.892;2023-01-25T15:12:58;50801.59;;;-142.97;60.54
8451;BME280;4262;50.980;13.892;2023-01-25T15:15:26;50821.09;;;-142.97;60.82
8451;BME280;4262;50.980;13.892;2023-01-25T15:17:54;50834.72;;;-142.97;61.03
8451;BME280;4262;50.980;13.892;2023-01-25T15:20:31;50842.53;;;-142.97;60.84
8451;BME280;4262;50.980;13.892;2023-01-25T15:23:01;50823.03;;;-142.97;60.40
8451;BME280;4262;50.980;13.892;2023-01-25T15:25:28;50842.53;;;-142.97;60.33
8451;BME280;4262;50.980;13.892;2023-01-25T15:27:55;50832.78;;;-142.97;59.93
8451;BME280;4262;50.980;13.892;2023-01-25T15:30:23;50828.88;;;-142.97;60.43
8451;BME280;4262;50.980;13.892;2023-01-25T15:32:50;50844.47;;;-142.97;60.48
8451;BME280;4262;50.980;13.892;2023-01-25T15:35:18;50834.72;;;-142.97;61.33
8451;BME280;4262;50.980;13.892;2023-01-25T15:37:47;50803.53;;;-142.97;60.69
8451;BME280;4262;50.980;13.892;2023-01-25T15:40:15;50823.03;;;-142.97;60.52
8451;BME280;4262;50.980;13.892;2023-01-25T15:42:42;50840.59;;;-142.97;60.15
8451;BME280;4262;50.980;13.892;2023-01-25T15:45:09;50823.03;;;-142.97;59.96
8451;BME280;4262;50.980;13.892;2023-01-25T15:47:37;50824.97;;;-142.97;60.68
8451;BME280;4262;50.980;13.892;2023-01-25T15:50:08;50836.69;;;-142.97;60.83
8451;BME280;4262;50.980;13.892;2023-01-25T15:52:43;50824.97;;;-142.97;60.54
8451;BME280;4262;50.980;13.892;2023-01-25T15:55:12;50846.44;;;-142.97;60.79
8451;BME280;4262;50.980;13.892;2023-01-25T15:57:40;50854.22;;;-142.97;60.67
8451;BME280;4262;50.980;13.892;2023-01-25T16:00:15;50791.84;;;-142.97;60.83
8451;BME280;4262;50.980;13.892;2023-01-25T16:02:42;50838.63;;;-142.97;60.78
8451;BME280;4262;50.980;13.892;2023-01-25T16:05:10;50834.72;;;-142.97;61.15
8451;BME280;4262;50.980;13.892;2023-01-25T16:07:39;50840.59;;;-142.97;61.08
8451;BME280;4262;50.980;13.892;2023-01-25T16:10:18;50846.44;;;-142.97;60.81
8451;BME280;4262;50.980;13.892;2023-01-25T16:12:46;50828.88;;;-142.97;61.48
8451;BME280;4262;50.980;13.892;2023-01-25T16:15:13;50846.44;;;-142.97;61.03
8451;BME280;4262;50.980;13.892;2023-01-25T16:17:40;50860.09;;;-142.97;62.10
8451;BME280;4262;50.980;13.892;2023-01-25T16:20:15;50823.03;;;-142.97;62.21
8451;BME280;4262;50.980;13.892;2023-01-25T16:22:43;50793.78;;;-142.97;62.17
8451;BME280;4262;50.980;13.892;2023-01-25T16:25:10;50862.03;;;-142.97;62.84
8451;BME280;4262;50.980;13.892;2023-01-25T16:27:38;50821.09;;;-142.97;62.17
8451;BME280;4262;50.980;13.892;2023-01-25T16:30:11;50821.09;;;-142.97;62.02
8451;BME280;4262;50.980;13.892;2023-01-25T16:32:41;50846.44;;;-142.97;61.87
8451;BME280;4262;50.980;13.892;2023-01-25T16:35:09;50834.72;;;-142.97;61.75
8451;BME280;4262;50.980;13.892;2023-01-25T16:37:35;50817.19;;;-142.97;62.34
8451;BME280;4262;50.980;13.892;2023-01-25T16:40:03;50834.72;;;-142.97;61.66
8451;BME280;4262;50.980;13.892;2023-01-25T16:42:30;50821.09;;;-142.97;62.96
8451;BME280;4262;50.980;13.892;2023-01-25T16:44:58;50824.97;;;-142.97;63.30
8451;BME280;4262;50.980;13.892;2023-01-25T16:47:25;50848.38;;;-142.97;62.66
8451;BME280;4262;50.980;13.892;2023-01-25T16:49:52;50782.09;;;-142.97;63.76
8451;BME280;4262;50.980;13.892;2023-01-25T16:52:19;50832.78;;;-142.97;63.19
8451;BME280;4262;50.980;13.892;2023-01-25T16:54:46;50867.88;;;-142.97;63.24
8451;BME280;4262;50.980;13.892;2023-01-25T16:57:12;50824.97;;;-142.97;62.97
8451;BME280;4262;50.980;13.892;2023-01-25T16:59:38;50830.84;;;-142.97;62.11
8451;BME280;4262;50.980;13.892;2023-01-25T17:02:09;50832.78;;;-142.97;62.81
8451;BME280;4262;50.980;13.892;2023-01-25T17:04:36;50795.75;;;-142.97;61.49
8451;BME280;4262;50.980;13.892;2023-01-25T17:07:04;50830.84;;;-142.97;61.65
8451;BME280;4262;50.980;13.892;2023-01-25T17:09:33;50799.63;;;-142.97;62.67
8451;BME280;4262;50.980;13.892;2023-01-25T17:12:00;50840.59;;;-142.97;62.26
8451;BME280;4262;50.980;13.892;2023-01-25T17:14:26;50828.88;;;-142.97;62.69
8451;BME280;4262;50.980;13.892;2023-01-25T17:16:53;50844.47;;;-142.97;63.60
8451;BME280;4262;50.980;13.892;2023-01-25T17:19:22;50852.28;;;-142.97;62.38
8451;BME280;4262;50.980;13.892;2023-01-25T17:21:49;50862.03;;;-142.97;62.01
8451;BME280;4262;50.980;13.892;2023-01-25T17:24:17;50840.59;;;-142.97;62.05
8451;BME280;4262;50.980;13.892;2023-01-25T17:26:45;50832.78;;;-142.97;61.86
8451;BME280;4262;50.980;13.892;2023-01-25T17:29:12;50824.97;;;-142.97;61.90
8451;BME280;4262;50.980;13.892;2023-01-25T17:31:40;50830.84;;;-142.97;61.99
8451;BME280;4262;50.980;13.892;2023-01-25T17:34:10;50842.53;;;-142.97;62.10
8451;BME280;4262;50.980;13.892;2023-01-25T17:36:42;50863.97;;;-142.97;61.87
8451;BME280;4262;50.980;13.892;2023-01-25T17:39:10;50817.19;;;-142.97;62.15
8451;BME280;4262;50.980;13.892;2023-01-25T17:41:41;50824.97;;;-142.97;61.27
8451;BME280;4262;50.980;13.892;2023-01-25T17:44:07;50856.19;;;-142.97;61.00
8451;BME280;4262;50.980;13.892;2023-01-25T17:46:35;50836.69;;;-142.97;62.08
8451;BME280;4262;50.980;13.892;2023-01-25T17:49:03;50846.44;;;-142.97;62.26
8451;BME280;4262;50.980;13.892;2023-01-25T17:51:31;50844.47;;;-142.97;61.90